Flight Track Log - Related Links

Times and Time Zones

All times are in EST time to prevent confusion due to time zone crossing. See the AMF9313 flight status page for this flight to view local times or setup timezone preferences in your user account.

Time Position Orientation Groundspeed Altitude Reporting Facility
EST Latitude Longitude Course Direction KTS MPH feet Rate Location/Type
Fri 09:18:52 PM 38.1500 -85.7333 190° South 149 171 2,800  Level Louisville TRACON
Fri 09:20:07 PM 38.1436 -85.7986 263° West 130 150 6,000 2,471 Climbing Indianapolis Center
Fri 09:21:08 PM 38.1108 -85.8144 201° Southwest 133 153 8,400 1,918 Climbing Indianapolis Center
Fri 09:22:09 PM 38.0758 -85.8267 195° South 131 151 9,900 780 Climbing Indianapolis Center
Fri 09:23:11 PM 38.0336 -85.8422 196° South 145 167 10,000 49 Climbing Indianapolis Center
Fri 09:24:00 PM 37.8564 -85.8544 190° South  Level Estimated
Fri 09:24:12 PM 37.9847 -85.8575 194° South 166 191 10,000  Level Indianapolis Center
Fri 09:25:13 PM 37.9339 -85.8750 195° South 180 207 10,000  Level Indianapolis Center
Fri 09:26:15 PM 37.8856 -85.8903 194° South 179 206 10,000  Level Indianapolis Center
Fri 09:27:16 PM 37.8358 -85.9092 197° South 183 211 10,000  Level Indianapolis Center
Fri 09:28:17 PM 37.7878 -85.9258 195° South 180 207 10,000  Level Indianapolis Center
Fri 09:29:18 PM 37.7392 -85.9414 194° South 178 205 10,000  Level Indianapolis Center
Fri 09:30:20 PM 37.6900 -85.9581 195° South 182 209 10,000  Level Indianapolis Center
Fri 09:31:21 PM 37.6425 -85.9747 196° South 175 201 10,000  Level Indianapolis Center
Fri 09:32:22 PM 37.5928 -85.9917 195° South 182 209 10,000  Level Indianapolis Center
Fri 09:33:24 PM 37.5403 -86.0094 195° South 171 197 10,000  Level Indianapolis Center
Fri 09:34:25 PM 37.4917 -86.0253 194° South 176 203 10,000  Level Indianapolis Center
Fri 09:35:26 PM 37.4419 -86.0436 196° South 182 209 10,000  Level Indianapolis Center
Fri 09:36:27 PM 37.3931 -86.0583 193° South 181 208 10,000  Level Indianapolis Center
Fri 09:37:29 PM 37.3436 -86.0753 195° South 182 209 10,000  Level Indianapolis Center
Fri 09:38:30 PM 37.2944 -86.0931 196° South 181 208 10,000  Level Indianapolis Center
Fri 09:39:31 PM 37.2464 -86.1081 194° South 179 206 10,000  Level Indianapolis Center
Fri 09:40:32 PM 37.1983 -86.1244 195° South 176 203 10,000  Level Indianapolis Center
Fri 09:41:34 PM 37.1500 -86.1400 194° South 178 205 10,000  Level Indianapolis Center
Fri 09:42:35 PM 37.1025 -86.1594 198° South 178 205 10,000 -295 Level Indianapolis Center
Fri 09:43:36 PM 37.0547 -86.1783 198° South 177 204 9,400 -787 Descending Indianapolis Center
Fri 09:44:37 PM 37.0008 -86.1947 194° South 194 223 8,400 -738 Descending Indianapolis Center
Fri 09:45:38 PM 36.9478 -86.2083 192° South 193 222 7,900 -244 Descending Indianapolis Center
Fri 09:46:40 PM 36.8900 -86.2258 194° South 183 211 7,900 61 Level Indianapolis Center
Fri 09:47:16 PM 36.8661 -86.2336 195° South 181 208 8,000 62 Climbing Memphis Center
Fri 09:48:17 PM 36.8192 -86.2519 197° South 176 203 8,000  Level Memphis Center
Fri 09:49:18 PM 36.7717 -86.2678 195° South 176 203 8,000  Level Memphis Center
Fri 09:50:19 PM 36.7236 -86.2844 196° South 176 203 8,000  Level Memphis Center
Fri 09:51:20 PM 36.6758 -86.3003 195° South 176 203 8,000  Level Memphis Center
Fri 09:52:21 PM 36.6283 -86.3153 194° South 175 201 8,000 -492 Level Memphis Center
Fri 09:53:22 PM 36.5761 -86.3325 195° South 186 214 7,000 -1,220 Descending Memphis Center
Fri 09:54:24 PM 36.5239 -86.3492 194° South 191 220 5,500 -1,268 Descending Memphis Center
Fri 09:55:25 PM 36.4689 -86.3678 195° South 199 229 4,400 -934 Descending Memphis Center
Fri 09:56:26 PM 36.4164 -86.3878 197° South 198 228 3,600 -689 Descending Memphis Center
Fri 09:57:27 PM 36.3656 -86.4047 195° South 189 217 3,000 -295 Descending Memphis Center
Fri 09:58:28 PM 36.3192 -86.4194 194° South 177 204 3,000  Level Memphis Center
Fri 09:59:29 PM 36.2750 -86.4328 194° South 165 190 3,000  Level Memphis Center
Fri 10:00:31 PM 36.2239 -86.4506 196° South 161 185 3,000  Level Memphis Center
Fri 10:01:32 PM 36.1808 -86.4656 196° South 160 184 3,000 -148 Level Memphis Center
Fri 10:02:33 PM 36.1408 -86.4892 205° Southwest 158 182 2,700 -341 Descending Memphis Center
Fri 10:03:35 PM 36.1064 -86.5094 205° Southwest 143 165 2,300 -439 Descending Memphis Center
Fri 10:04:36 PM 36.0747 -86.5147 188° South 125 144 1,800 -590 Descending Memphis Center
Fri 10:05:37 PM 36.0483 -86.5175 185° South 107 123 1,100 -541 Descending Memphis Center
Fri 10:06:38 PM 36.0233 -86.5192 183° South 104 120 700 -393 Descending Memphis Center
Fri 10:08:00 PM 36.0090 -86.5201 195° South  Level Estimated

Login

Don't have an account? Register now (free) for customized features, flight alerts, and more!